SBOSBO ACI / EGJA
Speedbird OnlineSpeedbird Online ACI / EGJA

Alderney Airport
10:51 16°C

Location Alderney, Guernsey
Latitude: 49.706104
Longitude: -2.21472
Local Time 10:51 on 17 Jun 2024
UTC +1 hours (Europe/Guernsey)
Currency £1 equals GGP 1.00
METAR EGJA 170920Z 20005KT 9999 FEW008 16/12 Q1011
TAF TAF EGJA 170805Z 1709/1718 VRB03KT 9999 FEW012 SCT015
Weather As Of 17 Jun 2024 10:51
Description Few clouds
Wind 9 km/h from South (200°)
Cloud Cover 20%
Precipitation Rain: none, Snow: none
Sunrise 05:00
Sunset 21:19
Web Wikipedia
Codes IATA: ACI
ICAO: EGJA
Altitude 88 Meter / 290 Feet
Distance 259 KM / 161 Miles
from London.
Runways
RunwayLength (m)Surface
03497Graded
08880Asphalt
14732Graded
21497Graded
26880Asphalt
32732Graded
Radio
TypeDescriptionFrequency
APPGUERNSEY APP128.65
GNDGND130.5
TWRTWR125.35
Live ATC



Support Speedbird Online

© 2017-2024 Speedbird Online